Time;durP1;ratioP1;P1;durP2;ratioP2;P2;SDS_P1;SDS_P2;PMS_P1;PMS_P2;Temp;Humidity;BMP_temperature;BMP_pressure;BME280_temperature;BME280_humidity;BME280_pressure;Samples;Min_cycle;Max_cycle;Signal;HPM_P1;HPM_P2
2022/10/11 00:02:18;;;;;;;21.35;9.30;;;;;;;14.48;62.85;94548.31;5063077;28;20027;-75
2022/10/11 00:04:44;;;;;;;19.35;9.93;;;;;;;14.45;62.91;94549.75;5062833;28;20021;-75
2022/10/11 00:07:09;;;;;;;18.80;9.75;;;;;;;14.42;63.14;94555.72;5062084;28;20024;-76
2022/10/11 00:09:35;;;;;;;21.45;9.52;;;;;;;14.42;63.25;94558.41;5062851;28;20021;-76
2022/10/11 00:12:00;;;;;;;22.50;9.82;;;;;;;14.30;63.55;94552.91;5062894;28;20111;-76
2022/10/11 00:14:27;;;;;;;19.92;10.27;;;;;;;14.25;63.87;94557.34;5062861;28;20017;-76
2022/10/11 00:16:53;;;;;;;21.00;10.30;;;;;;;14.23;64.22;94548.84;5062918;28;20048;-76
2022/10/11 00:19:19;;;;;;;19.33;11.07;;;;;;;14.21;64.34;94551.03;5062551;28;20025;-76
2022/10/11 00:21:44;;;;;;;18.02;10.13;;;;;;;14.22;64.29;94552.59;5062649;28;20032;-76
2022/10/11 00:24:11;;;;;;;20.98;11.50;;;;;;;14.19;64.24;94553.25;5062640;28;20043;-76
2022/10/11 00:26:36;;;;;;;19.45;9.65;;;;;;;14.19;64.22;94545.22;5062656;28;20024;-75
2022/10/11 00:29:02;;;;;;;18.08;11.23;;;;;;;14.17;64.42;94544.75;5062836;28;20031;-76
2022/10/11 00:31:28;;;;;;;25.58;11.35;;;;;;;14.16;64.57;94547.75;5062643;28;20357;-76
2022/10/11 00:33:53;;;;;;;22.67;11.52;;;;;;;14.13;64.33;94543.81;5062706;28;20028;-75
2022/10/11 00:36:20;;;;;;;21.48;11.10;;;;;;;14.09;64.60;94548.22;5062499;28;20041;-75
2022/10/11 00:38:45;;;;;;;23.45;11.18;;;;;;;14.09;64.63;94542.88;5062687;28;20099;-75
2022/10/11 00:41:11;;;;;;;28.55;11.25;;;;;;;14.08;64.77;94546.63;5061435;28;20041;-76
2022/10/11 00:43:37;;;;;;;22.23;13.20;;;;;;;14.09;64.69;94552.81;5062368;28;20036;-76
2022/10/11 00:46:25;;;;;;;18.35;10.88;;;;;;;14.06;65.02;94548.84;5062530;28;20081;-75
2022/10/11 00:49:02;;;;;;;20.52;12.27;;;;;;;14.07;64.91;94539.72;5062587;28;20311;-75
2022/10/11 00:51:33;;;;;;;20.80;11.65;;;;;;;13.98;65.49;94536.25;5062510;28;20033;-75
2022/10/11 00:54:01;;;;;;;29.15;14.27;;;;;;;13.94;65.57;94538.00;5062528;28;20386;-74
2022/10/11 00:56:32;;;;;;;19.77;11.63;;;;;;;13.92;65.75;94545.56;5062541;28;20021;-74
2022/10/11 00:59:01;;;;;;;21.15;13.15;;;;;;;13.91;65.73;94538.66;5062442;28;20203;-74
2022/10/11 01:01:26;;;;;;;19.67;12.95;;;;;;;13.87;66.09;94543.06;5063331;28;20022;-75
2022/10/11 01:03:52;;;;;;;21.88;13.02;;;;;;;13.83;66.30;94543.69;5066409;28;20044;-76
2022/10/11 01:06:18;;;;;;;18.48;12.45;;;;;;;13.77;66.57;94554.88;5066436;28;20021;-75
2022/10/11 01:08:43;;;;;;;22.52;12.93;;;;;;;13.74;66.58;94540.22;5066281;28;20025;-75
2022/10/11 01:11:15;;;;;;;20.13;13.48;;;;;;;13.73;66.93;94545.91;5066128;28;20192;-74
2022/10/11 01:14:25;;;;;;;20.10;12.55;;;;;;;13.68;67.24;94546.84;5066063;28;20017;-74
2022/10/11 01:17:19;;;;;;;20.95;13.55;;;;;;;13.58;67.81;94545.28;5060619;28;20039;-75
2022/10/11 01:19:59;;;;;;;23.13;14.20;;;;;;;13.55;67.78;94540.53;5064949;28;20094;-74
2022/10/11 01:22:40;;;;;;;22.77;13.82;;;;;;;13.52;68.00;94543.06;5066131;28;20219;-75
2022/10/11 01:25:14;;;;;;;22.23;14.13;;;;;;;13.52;68.13;94535.03;5065761;28;20040;-77
2022/10/11 01:27:43;;;;;;;21.92;13.80;;;;;;;13.46;68.46;94536.28;5065784;28;20344;-76
2022/10/11 01:30:35;;;;;;;24.33;13.63;;;;;;;13.44;68.67;94534.69;5065679;28;20046;-76
2022/10/11 01:33:19;;;;;;;21.35;13.00;;;;;;;13.38;68.89;94537.84;5065805;28;20092;-76
2022/10/11 01:36:06;;;;;;;22.42;13.98;;;;;;;13.35;69.35;94541.16;5065764;28;20385;-76
2022/10/11 01:38:43;;;;;;;21.30;12.55;;;;;;;13.28;69.33;94536.22;5065704;28;20214;-75
2022/10/11 01:41:23;;;;;;;24.02;13.65;;;;;;;13.28;69.38;94538.13;5065702;28;20215;-75
2022/10/11 01:43:54;;;;;;;26.73;13.70;;;;;;;13.26;69.34;94527.72;5065332;28;20032;-76
2022/10/11 01:46:20;;;;;;;24.88;14.55;;;;;;;13.25;69.44;94534.19;5065767;28;20029;-75
2022/10/11 01:48:51;;;;;;;23.38;14.85;;;;;;;13.25;69.47;94532.31;5065610;28;20039;-75
2022/10/11 01:51:20;;;;;;;30.88;15.45;;;;;;;13.25;69.46;94537.66;5065199;28;20043;-75
2022/10/11 01:53:54;;;;;;;31.33;16.00;;;;;;;13.27;69.64;94532.00;5065609;28;20029;-75
2022/10/11 01:56:56;;;;;;;25.10;14.88;;;;;;;13.21;69.48;94535.91;5065456;28;20044;-76
2022/10/11 01:59:39;;;;;;;25.77;14.15;;;;;;;13.18;69.43;94528.50;5065414;28;20029;-75
2022/10/11 02:02:36;;;;;;;26.73;15.27;;;;;;;13.20;69.37;94534.34;5065190;28;20024;-75
2022/10/11 02:05:12;;;;;;;26.00;14.32;;;;;;;13.21;69.33;94533.25;5065067;28;20092;-75
2022/10/11 02:07:54;;;;;;;26.05;14.77;;;;;;;13.22;69.22;94527.56;5064018;28;20021;-76
2022/10/11 02:10:30;;;;;;;25.90;15.98;;;;;;;13.20;69.24;94531.66;5064951;28;20092;-75
2022/10/11 02:13:08;;;;;;;28.17;15.63;;;;;;;13.22;69.06;94527.56;5064544;28;20025;-76
2022/10/11 02:15:38;;;;;;;24.00;15.85;;;;;;;13.22;69.21;94543.63;5064813;28;20209;-75
2022/10/11 02:18:12;;;;;;;28.40;14.88;;;;;;;13.17;69.26;94522.38;5064998;28;20268;-75
2022/10/11 02:20:40;;;;;;;27.88;15.73;;;;;;;13.15;69.36;94526.47;5064762;28;20032;-76
2022/10/11 02:23:13;;;;;;;28.88;16.27;;;;;;;13.15;69.29;94523.78;5064564;28;20024;-75
2022/10/11 02:25:41;;;;;;;26.25;16.45;;;;;;;13.15;69.38;94521.91;5064844;28;20204;-75
2022/10/11 02:28:12;;;;;;;22.02;15.52;;;;;;;13.11;69.40;94520.94;5063600;28;20036;-75
2022/10/11 02:30:41;;;;;;;30.40;17.25;;;;;;;13.09;69.47;94516.97;5064752;28;20249;-75
2022/10/11 02:33:11;;;;;;;28.20;15.70;;;;;;;13.08;69.47;94512.75;5064793;28;20016;-75
2022/10/11 02:35:43;;;;;;;27.13;16.45;;;;;;;13.10;69.46;94513.22;5064513;28;20372;-75
2022/10/11 02:38:20;;;;;;;30.27;16.75;;;;;;;13.10;69.64;94514.00;5064613;28;20028;-75
2022/10/11 02:41:04;;;;;;;34.25;17.10;;;;;;;13.08;69.87;94516.19;5064623;28;20035;-75
2022/10/11 02:43:37;;;;;;;28.08;15.70;;;;;;;13.11;69.80;94510.25;5064465;28;20021;-75
2022/10/11 02:46:06;;;;;;;27.10;16.35;;;;;;;13.08;69.84;94516.19;5064296;28;20023;-76
2022/10/11 02:48:32;;;;;;;26.98;15.38;;;;;;;13.10;69.72;94521.25;5064444;28;20035;-76
2022/10/11 02:50:58;;;;;;;29.77;16.30;;;;;;;13.11;69.69;94520.13;5064501;28;20107;-76
2022/10/11 02:53:25;;;;;;;26.67;17.13;;;;;;;13.07;69.85;94517.31;5064560;28;20028;-76
2022/10/11 02:55:53;;;;;;;29.42;16.55;;;;;;;13.08;69.96;94515.41;5064184;28;20245;-76
2022/10/11 02:58:19;;;;;;;28.05;17.38;;;;;;;13.04;70.08;94509.91;5064267;28;20215;-75
2022/10/11 03:00:44;;;;;;;28.88;16.83;;;;;;;13.01;70.24;94505.19;5064212;28;20095;-75
2022/10/11 03:03:10;;;;;;;28.98;17.45;;;;;;;13.01;70.30;94510.53;5062939;28;20310;-75
2022/10/11 03:05:42;;;;;;;28.25;17.15;;;;;;;13.01;70.26;94511.31;5064046;28;20020;-75
2022/10/11 03:08:11;;;;;;;;;;;;;;;13.03;70.43;94503.75;5064390;28;20029;-75
2022/10/11 03:10:37;;;;;;;31.17;17.00;;;;;;;12.97;70.52;94501.56;5063909;28;19908;-75
2022/10/11 03:13:03;;;;;;;30.30;17.02;;;;;;;12.97;70.64;94505.00;5064122;28;20017;-75
2022/10/11 03:15:28;;;;;;;30.63;17.70;;;;;;;12.97;70.50;94504.22;5063824;28;20025;-75
2022/10/11 03:17:54;;;;;;;28.73;17.17;;;;;;;12.95;71.09;94507.22;5063838;28;20024;-75
2022/10/11 03:20:20;;;;;;;31.00;18.05;;;;;;;12.97;71.47;94506.91;5063705;28;20035;-75
2022/10/11 03:22:45;;;;;;;35.22;19.27;;;;;;;12.98;71.45;94503.91;5063738;28;20025;-75
2022/10/11 03:25:11;;;;;;;32.97;16.30;;;;;;;12.97;71.23;94507.69;5062590;28;20041;-75
2022/10/11 03:27:37;;;;;;;29.95;17.08;;;;;;;12.94;71.01;94502.16;5063354;28;20024;-75
2022/10/11 03:30:03;;;;;;;32.90;17.80;;;;;;;12.95;71.15;94495.72;5063532;28;20061;-75
2022/10/11 03:32:29;;;;;;;28.02;17.00;;;;;;;12.93;71.10;94501.38;5063556;28;20021;-75
2022/10/11 03:34:55;;;;;;;38.35;17.15;;;;;;;12.90;71.25;94493.97;5063559;28;20082;-75
2022/10/11 03:37:20;;;;;;;30.98;16.38;;;;;;;12.93;71.10;94488.00;5063292;28;20025;-75
2022/10/11 03:39:46;;;;;;;26.58;16.33;;;;;;;12.94;71.06;94494.91;5063427;28;20327;-75
2022/10/11 03:42:12;;;;;;;29.48;16.77;;;;;;;12.96;71.06;94498.06;5063167;28;20033;-75
2022/10/11 03:44:38;;;;;;;30.65;16.48;;;;;;;12.96;71.03;94497.28;5062996;28;20040;-75
2022/10/11 03:47:04;;;;;;;23.83;14.88;;;;;;;12.99;71.37;94494.78;5063230;28;20028;-75
2022/10/11 03:49:29;;;;;;;27.73;16.17;;;;;;;12.97;71.54;94482.81;5062921;28;20021;-75
2022/10/11 03:51:55;;;;;;;25.52;14.45;;;;;;;12.97;71.65;94494.31;5063232;28;20071;-76
2022/10/11 03:54:20;;;;;;;27.08;15.38;;;;;;;12.96;71.41;94487.38;5063002;28;20080;-75
2022/10/11 03:56:46;;;;;;;25.52;15.80;;;;;;;12.97;71.50;94483.59;5063040;28;20044;-75
2022/10/11 03:59:11;;;;;;;23.95;15.10;;;;;;;12.99;71.59;94483.31;5063119;28;20024;-76
2022/10/11 04:01:37;;;;;;;25.35;13.80;;;;;;;12.99;71.47;94480.63;5062960;28;20024;-76
2022/10/11 04:04:04;;;;;;;26.75;15.25;;;;;;;13.01;71.25;94489.91;5063069;28;20029;-76
2022/10/11 04:06:29;;;;;;;22.67;14.55;;;;;;;13.02;71.40;94483.44;5062952;28;20025;-75
2022/10/11 04:08:55;;;;;;;21.30;13.48;;;;;;;13.01;71.48;94487.22;5063155;28;20333;-75
2022/10/11 04:11:21;;;;;;;27.88;14.80;;;;;;;13.02;71.41;94490.69;5062962;28;20241;-75
2022/10/11 04:13:46;;;;;;;24.35;14.52;;;;;;;12.98;71.42;94490.53;5062793;28;20029;-75
2022/10/11 04:16:12;;;;;;;27.23;14.00;;;;;;;12.99;70.88;94485.97;5062513;28;20067;-75
2022/10/11 04:18:37;;;;;;;21.88;13.73;;;;;;;12.90;71.12;94485.16;5062495;28;20219;-75
2022/10/11 04:21:03;;;;;;;24.77;14.65;;;;;;;12.78;71.35;94501.81;5062653;28;20017;-75
2022/10/11 04:23:33;;;;;;;22.65;14.25;;;;;;;12.72;71.85;94492.34;5062360;28;20033;-75
2022/10/11 04:25:58;;;;;;;25.02;14.77;;;;;;;12.63;72.28;94490.44;5062378;28;20060;-75
2022/10/11 04:28:24;;;;;;;26.00;14.45;;;;;;;12.52;72.87;94494.50;5062851;28;20025;-76
2022/10/11 04:30:50;;;;;;;23.80;14.77;;;;;;;12.49;72.99;94497.00;5062533;28;20048;-75
2022/10/11 04:33:16;;;;;;;29.95;14.98;;;;;;;12.46;73.35;94495.75;5062553;28;20053;-75
2022/10/11 04:35:41;;;;;;;30.20;17.15;;;;;;;12.47;73.46;94497.31;5062006;28;20083;-75
2022/10/11 04:38:07;;;;;;;24.50;15.23;;;;;;;12.49;73.33;94499.69;5062546;28;20368;-75
2022/10/11 04:40:32;;;;;;;27.73;15.60;;;;;;;12.51;73.40;94497.47;5062480;28;20024;-75
2022/10/11 04:42:58;;;;;;;25.55;15.15;;;;;;;12.52;73.44;94494.50;5062156;28;20017;-75
2022/10/11 04:45:23;;;;;;;28.15;16.45;;;;;;;12.55;73.81;94498.44;5062399;28;20079;-75
2022/10/11 04:47:49;;;;;;;22.77;15.02;;;;;;;12.58;73.05;94489.81;5062154;28;20017;-75
2022/10/11 04:50:15;;;;;;;29.85;15.65;;;;;;;12.55;72.97;94504.56;5062259;28;20063;-75
2022/10/11 04:52:41;;;;;;;35.88;15.70;;;;;;;12.48;73.26;94498.91;5062082;28;20096;-75
2022/10/11 04:55:06;;;;;;;33.65;16.02;;;;;;;12.45;73.59;94504.84;5062339;28;20013;-75
2022/10/11 04:57:32;;;;;;;32.42;16.02;;;;;;;12.43;73.84;94501.69;5062227;28;20016;-75
2022/10/11 04:59:57;;;;;;;26.70;15.73;;;;;;;12.47;73.73;94497.31;5062174;28;20044;-75
2022/10/11 05:02:23;;;;;;;27.73;16.55;;;;;;;12.54;73.62;94502.22;5062404;28;20017;-75
2022/10/11 05:04:48;;;;;;;37.55;16.65;;;;;;;12.60;73.84;94495.63;5062226;28;20088;-75
2022/10/11 05:07:14;;;;;;;31.35;17.10;;;;;;;12.61;73.07;94497.97;5060919;28;20021;-75
2022/10/11 05:09:39;;;;;;;27.85;15.30;;;;;;;12.55;73.07;94496.53;5061987;28;20024;-75
2022/10/11 05:12:05;;;;;;;30.38;15.77;;;;;;;12.53;73.30;94497.97;5062315;28;20092;-75
2022/10/11 05:14:30;;;;;;;26.80;16.67;;;;;;;12.54;73.72;94502.22;5061978;28;20058;-75
2022/10/11 05:16:56;;;;;;;31.20;16.70;;;;;;;12.57;74.12;94515.75;5062107;28;20040;-75
2022/10/11 05:19:21;;;;;;;28.33;15.93;;;;;;;12.60;73.88;94507.13;5062052;28;20020;-75
2022/10/11 05:21:47;;;;;;;27.17;15.77;;;;;;;12.63;72.98;94505.69;5062003;28;20215;-75
2022/10/11 05:24:12;;;;;;;29.30;16.48;;;;;;;12.65;72.79;94508.84;5061812;28;20262;-75
2022/10/11 05:26:38;;;;;;;25.73;15.55;;;;;;;12.68;72.99;94516.28;5061904;28;20031;-75
2022/10/11 05:29:03;;;;;;;32.10;16.38;;;;;;;12.71;73.18;94512.97;5061945;28;20048;-75
2022/10/11 05:31:29;;;;;;;26.33;15.82;;;;;;;12.74;72.65;94522.25;5061911;28;20020;-75
2022/10/11 05:33:54;;;;;;;27.27;16.00;;;;;;;12.73;72.37;94520.69;5061945;28;20314;-75
2022/10/11 05:36:20;;;;;;;28.63;15.77;;;;;;;12.74;72.50;94524.91;5061738;28;20036;-75
2022/10/11 05:38:45;;;;;;;26.60;16.25;;;;;;;12.75;72.44;94531.88;5061887;28;20025;-75
2022/10/11 05:41:14;;;;;;;31.10;16.95;;;;;;;12.79;72.25;94532.81;5061553;28;20044;-75
2022/10/11 05:43:41;;;;;;;30.90;15.55;;;;;;;12.85;72.45;94534.25;5061460;28;20027;-75
2022/10/11 05:46:06;;;;;;;31.70;17.35;;;;;;;12.84;72.61;94536.16;5061359;28;20021;-75
2022/10/11 05:48:32;;;;;;;49.78;19.42;;;;;;;12.88;72.76;94536.28;5062911;28;20025;-75
2022/10/11 05:51:00;;;;;;;32.65;18.20;;;;;;;12.98;72.43;94511.94;5064967;28;20032;-75
2022/10/11 05:53:26;;;;;;;39.05;18.02;;;;;;;13.05;72.10;94514.94;5065408;28;20032;-75
2022/10/11 05:55:52;;;;;;;47.83;17.65;;;;;;;13.15;72.10;94521.13;5065340;28;20100;-75
2022/10/11 05:58:17;;;;;;;27.10;17.95;;;;;;;13.18;72.37;94529.28;5065304;28;20067;-75
2022/10/11 06:00:43;;;;;;;27.35;16.08;;;;;;;13.21;71.00;94533.25;5065075;28;20028;-75
2022/10/11 06:03:11;;;;;;;32.78;17.10;;;;;;;13.19;71.74;94525.53;5065031;28;20025;-74
2022/10/11 06:05:36;;;;;;;29.77;17.83;;;;;;;13.19;71.17;94516.72;5064925;28;20029;-75
2022/10/11 06:08:04;;;;;;;27.42;17.40;;;;;;;13.23;71.59;94512.31;5065112;28;20059;-76
2022/10/11 06:10:30;;;;;;;28.92;17.05;;;;;;;13.33;71.62;94511.22;5064898;28;20028;-77
2022/10/11 06:12:56;;;;;;;41.17;18.23;;;;;;;13.42;71.24;94510.13;5065473;28;20044;-77
2022/10/11 06:15:21;;;;;;;30.98;16.92;;;;;;;13.51;71.61;94515.47;5063936;28;20055;-76
2022/10/11 06:17:46;;;;;;;29.60;17.00;;;;;;;13.62;71.04;94518.66;5064755;28;20024;-76
2022/10/11 06:20:12;;;;;;;26.95;17.88;;;;;;;13.69;70.83;94510.13;5064730;28;20361;-76
2022/10/11 06:22:40;;;;;;;37.83;17.42;;;;;;;13.79;70.17;94513.25;5064932;28;20031;-76
2022/10/11 06:25:06;;;;;;;32.30;17.23;;;;;;;13.88;69.71;94517.81;5064463;28;20037;-77
2022/10/11 06:27:31;;;;;;;37.00;17.17;;;;;;;13.94;69.36;94514.69;5063464;28;20021;-76
2022/10/11 06:29:57;;;;;;;31.73;17.50;;;;;;;14.01;69.08;94523.00;5064788;28;20075;-77
2022/10/11 06:32:23;;;;;;;22.88;14.88;;;;;;;14.09;68.84;94526.78;5064655;28;20025;-78
2022/10/11 06:34:48;;;;;;;29.20;14.63;;;;;;;14.14;67.91;94531.19;5064655;28;20051;-76
2022/10/11 06:37:14;;;;;;;30.48;14.05;;;;;;;14.13;68.05;94524.25;5064391;28;20253;-76
2022/10/11 06:39:39;;;;;;;27.52;15.70;;;;;;;14.15;67.73;94530.88;5064474;28;20032;-76
2022/10/11 06:42:05;;;;;;;40.53;15.77;;;;;;;14.19;67.88;94534.50;5064283;28;20021;-76
2022/10/11 06:44:30;;;;;;;32.72;15.30;;;;;;;14.19;67.86;94541.75;5064222;28;20024;-76
2022/10/11 06:46:55;;;;;;;31.90;15.10;;;;;;;14.21;67.83;94537.66;5064419;28;20067;-76
2022/10/11 06:49:21;;;;;;;31.70;14.75;;;;;;;14.21;67.78;94551.03;5064393;28;20024;-77
2022/10/11 06:51:46;;;;;;;24.50;13.45;;;;;;;14.24;67.43;94554.97;5064170;28;20238;-76
2022/10/11 06:54:12;;;;;;;24.83;14.23;;;;;;;14.30;67.44;94560.97;5064293;28;20025;-76
2022/10/11 06:56:37;;;;;;;37.10;14.27;;;;;;;14.33;67.63;94550.41;5064123;28;20052;-76
2022/10/11 06:59:03;;;;;;;29.88;15.32;;;;;;;14.41;67.61;94554.13;5063883;28;20143;-76
2022/10/11 07:01:29;;;;;;;26.08;13.38;;;;;;;14.52;67.17;94555.38;5064082;28;20314;-76
2022/10/11 07:03:56;;;;;;;33.20;14.77;;;;;;;14.61;67.20;94552.69;5064128;28;20043;-76
2022/10/11 07:06:27;;;;;;;30.58;15.40;;;;;;;14.69;67.40;94548.41;5064170;28;20025;-76
2022/10/11 07:08:53;;;;;;;34.80;16.25;;;;;;;14.69;67.53;94549.19;5063890;28;20028;-76
2022/10/11 07:11:24;;;;;;;33.42;16.13;;;;;;;14.73;67.49;94541.28;5063889;28;20334;-76
2022/10/11 07:13:52;;;;;;;34.08;16.08;;;;;;;14.71;67.87;94535.47;5063697;28;20028;-76
2022/10/11 07:16:19;;;;;;;28.27;15.23;;;;;;;14.80;67.30;94536.22;5063528;28;20036;-76
2022/10/11 07:18:44;;;;;;;37.03;17.00;;;;;;;14.92;67.44;94539.00;5063475;28;20028;-76
2022/10/11 07:21:12;;;;;;;34.38;17.45;;;;;;;15.00;67.05;94551.59;5063515;28;20039;-75
2022/10/11 07:23:38;;;;;;;36.35;17.25;;;;;;;15.12;67.01;94558.16;5063301;28;20053;-75
2022/10/11 07:26:05;;;;;;;34.33;16.55;;;;;;;15.13;67.23;94562.44;5063304;28;20032;-75
2022/10/11 07:28:31;;;;;;;35.60;16.05;;;;;;;15.20;67.12;94549.25;5063339;28;20021;-74
2022/10/11 07:30:58;;;;;;;38.58;16.90;;;;;;;15.27;66.26;94560.28;5063391;28;20101;-74
2022/10/11 07:33:23;;;;;;;31.02;17.20;;;;;;;15.32;65.76;94554.72;5063523;28;20028;-75
2022/10/11 07:35:49;;;;;;;32.40;16.17;;;;;;;15.41;65.94;94554.69;5062060;28;20013;-76
2022/10/11 07:38:16;;;;;;;30.15;15.15;;;;;;;15.34;65.41;94546.34;5062810;28;20024;-76
2022/10/11 07:40:43;;;;;;;34.20;15.75;;;;;;;15.45;65.18;94547.53;5062447;28;20025;-76
2022/10/11 07:43:10;;;;;;;32.05;15.23;;;;;;;15.54;64.88;94550.16;5063234;28;20146;-77
2022/10/11 07:45:39;;;;;;;33.20;14.90;;;;;;;15.61;64.71;94551.22;5062958;28;20063;-75
2022/10/11 07:48:05;;;;;;;31.75;15.13;;;;;;;15.67;64.15;94548.31;5063396;28;20314;-74
2022/10/11 07:50:32;;;;;;;35.47;15.70;;;;;;;15.74;64.11;94552.09;5061972;28;20025;-74
2022/10/11 07:52:57;;;;;;;27.92;14.75;;;;;;;15.80;63.66;94552.69;5063057;28;20041;-75
2022/10/11 07:55:22;;;;;;;26.20;12.93;;;;;;;15.88;63.47;94553.72;5063085;28;20017;-75
2022/10/11 07:57:48;;;;;;;31.98;13.93;;;;;;;15.92;63.71;94554.66;5061920;28;20104;-76
2022/10/11 08:00:13;;;;;;;28.50;13.98;;;;;;;15.89;63.08;94549.91;5062994;28;20020;-75
2022/10/11 08:02:39;;;;;;;27.23;14.35;;;;;;;15.95;62.50;94551.28;5062720;28;20424;-77
2022/10/11 08:05:04;;;;;;;24.90;12.82;;;;;;;15.96;61.64;94545.59;5063034;28;20048;-76
2022/10/11 08:07:30;;;;;;;23.98;12.35;;;;;;;16.00;61.29;94540.34;5063001;28;20372;-75
2022/10/11 08:09:55;;;;;;;25.40;13.13;;;;;;;16.07;61.41;94554.03;5062871;28;20027;-77
2022/10/11 08:12:21;;;;;;;26.65;14.10;;;;;;;16.13;61.29;94549.22;5062154;28;20111;-76
2022/10/11 08:14:46;;;;;;;30.23;14.73;;;;;;;16.20;61.26;94560.22;5062752;28;20249;-75
2022/10/11 08:17:13;;;;;;;22.52;12.63;;;;;;;16.31;61.31;94560.59;5062460;28;20021;-74
2022/10/11 08:19:39;;;;;;;36.88;14.30;;;;;;;16.39;61.00;94557.03;5062418;28;20334;-73
2022/10/11 08:22:04;;;;;;;24.85;13.48;;;;;;;16.48;60.34;94557.72;5062595;28;20032;-74
2022/10/11 08:24:30;;;;;;;34.45;14.30;;;;;;;16.52;59.95;94561.31;5062480;28;20103;-73
2022/10/11 08:26:55;;;;;;;32.20;13.90;;;;;;;16.61;59.75;94561.25;5062496;28;20222;-75
2022/10/11 08:29:21;;;;;;;24.33;13.30;;;;;;;16.65;59.79;94559.47;5062427;28;20124;-77
2022/10/11 08:31:46;;;;;;;26.08;13.80;;;;;;;16.64;59.23;94565.94;5062521;28;20040;-76
2022/10/11 08:34:12;;;;;;;24.35;12.80;;;;;;;16.73;59.30;94555.88;5062355;28;20095;-76
2022/10/11 08:36:38;;;;;;;23.85;12.60;;;;;;;16.74;58.91;94565.50;5062618;28;20025;-75
2022/10/11 08:39:05;;;;;;;27.98;13.40;;;;;;;16.77;59.28;94566.75;5062584;28;20302;-74
2022/10/11 08:41:56;;;;;;;20.15;12.10;;;;;;;16.82;58.62;94567.34;5062469;28;20021;-74
2022/10/11 08:44:30;;;;;;;25.15;11.48;;;;;;;16.87;58.36;94549.41;5062539;28;20024;-75
2022/10/11 08:47:04;;;;;;;17.98;10.07;;;;;;;16.90;58.51;94557.59;5062405;28;20052;-75
2022/10/11 08:49:32;;;;;;;26.17;12.27;;;;;;;16.94;58.13;94558.50;5062300;28;20017;-74
2022/10/11 08:52:04;;;;;;;20.20;12.10;;;;;;;16.99;58.32;94558.25;5062324;28;20024;-76
2022/10/11 08:54:53;;;;;;;23.33;13.43;;;;;;;17.10;57.90;94557.84;5062182;28;20306;-75
2022/10/11 08:57:21;;;;;;;22.30;11.80;;;;;;;17.22;57.79;94561.31;5062295;28;20048;-74
2022/10/11 09:00:14;;;;;;;24.08;12.93;;;;;;;17.22;57.83;94560.53;5061904;28;20071;-76
2022/10/11 09:02:57;;;;;;;;;;;;;;;17.26;57.60;94561.44;5061404;28;20394;-75
2022/10/11 09:05:29;;;;;;;22.92;12.15;;;;;;;17.30;57.17;94551.53;5062318;28;20088;-75
2022/10/11 09:08:27;;;;;;;26.67;13.40;;;;;;;17.35;57.57;94551.28;5062281;28;20035;-74
2022/10/11 09:11:10;;;;;;;26.23;14.07;;;;;;;17.41;57.72;94549.94;5061847;28;20331;-73
2022/10/11 09:14:00;;;;;;;39.90;14.80;;;;;;;17.45;57.87;94556.22;5061827;28;20038;-73
2022/10/11 09:16:41;;;;;;;25.80;13.63;;;;;;;17.53;57.54;94548.38;5061910;28;20049;-75
2022/10/11 09:19:09;;;;;;;30.50;14.30;;;;;;;17.52;57.19;94546.78;5061863;28;20049;-74
2022/10/11 09:22:06;;;;;;;23.65;13.60;;;;;;;17.62;57.51;94551.69;5061871;28;20059;-73
2022/10/11 09:25:00;;;;;;;23.25;13.63;;;;;;;17.73;56.78;94552.81;5064591;28;20048;-72
2022/10/11 09:27:35;;;;;;;25.52;13.65;;;;;;;17.83;55.92;94548.88;5065648;28;20021;-73
2022/10/11 09:30:17;;;;;;;27.17;13.15;;;;;;;17.91;56.14;94539.88;5065298;28;20043;-73
2022/10/11 09:32:46;;;;;;;23.95;13.32;;;;;;;18.00;55.56;94542.41;5065507;28;20021;-73
2022/10/11 09:35:17;;;;;;;29.50;14.23;;;;;;;18.15;54.82;94546.28;5065418;28;20016;-74
2022/10/11 09:37:53;;;;;;;26.20;12.80;;;;;;;18.22;54.58;94539.16;5065384;28;20024;-74
2022/10/11 09:40:33;;;;;;;21.52;13.02;;;;;;;18.38;54.13;94539.19;5065421;28;20029;-73
2022/10/11 09:42:59;;;;;;;23.23;12.30;;;;;;;18.48;54.03;94540.63;5065207;28;20021;-74
2022/10/11 09:45:24;;;;;;;22.05;13.05;;;;;;;18.59;53.30;94543.56;5065303;28;20024;-75
2022/10/11 09:47:52;;;;;;;23.63;12.77;;;;;;;18.76;52.75;94539.75;5065197;28;20028;-76
2022/10/11 09:50:28;;;;;;;24.25;13.50;;;;;;;18.86;52.47;94531.16;5065128;28;20242;-74
2022/10/11 09:52:57;;;;;;;24.02;14.20;;;;;;;18.96;52.53;94530.63;5064987;28;20222;-74
2022/10/11 09:55:49;;;;;;;28.02;13.45;;;;;;;18.96;52.07;94530.63;5065160;28;20036;-74
2022/10/11 09:58:28;;;;;;;25.58;11.88;;;;;;;18.94;51.90;94532.88;5064986;28;20098;-73
2022/10/11 10:01:04;;;;;;;19.52;12.25;;;;;;;19.01;51.97;94533.06;5065210;28;20062;-74
2022/10/11 10:03:43;;;;;;;19.67;11.88;;;;;;;19.10;51.46;94524.00;5064981;28;20044;-74
2022/10/11 10:06:23;;;;;;;28.75;11.68;;;;;;;19.16;51.37;94528.78;5064970;28;20029;-74
2022/10/11 10:08:49;;;;;;;26.45;12.80;;;;;;;19.32;51.33;94531.47;5064791;28;20048;-74
2022/10/11 10:11:16;;;;;;;22.48;11.93;;;;;;;19.47;51.24;94531.78;5064670;28;20020;-74
2022/10/11 10:13:50;;;;;;;16.75;11.00;;;;;;;19.67;50.30;94530.66;5064590;28;20021;-73
2022/10/11 10:16:29;;;;;;;17.85;11.65;;;;;;;19.80;49.75;94528.63;5064789;28;20048;-74
2022/10/11 10:18:58;;;;;;;20.70;11.23;;;;;;;19.91;48.86;94529.66;5065046;28;20033;-75
2022/10/11 10:21:36;;;;;;;20.50;11.13;;;;;;;19.83;49.18;94514.41;5064827;28;20036;-74
2022/10/11 10:24:16;;;;;;;19.88;11.63;;;;;;;19.95;49.70;94518.91;5064534;28;20033;-74
2022/10/11 10:26:41;;;;;;;17.23;11.20;;;;;;;20.00;48.76;94516.66;5064508;28;20025;-74
2022/10/11 10:29:06;;;;;;;23.27;12.27;;;;;;;20.08;49.10;94514.88;5064427;28;20029;-74
2022/10/11 10:31:38;;;;;;;21.20;12.00;;;;;;;20.07;48.54;94505.22;5064500;28;20019;-74
2022/10/11 10:34:15;;;;;;;27.33;12.57;;;;;;;20.04;48.77;94511.34;5063898;28;20027;-74
2022/10/11 10:36:52;;;;;;;26.88;12.70;;;;;;;20.12;49.46;94507.63;5064364;28;20295;-74
2022/10/11 10:39:35;;;;;;;24.40;13.02;;;;;;;20.10;49.19;94493.66;5064475;28;20053;-74
2022/10/11 10:42:04;;;;;;;26.77;14.15;;;;;;;20.19;49.30;94496.13;5064351;28;20048;-74
2022/10/11 10:44:29;;;;;;;26.58;13.35;;;;;;;20.36;48.77;94494.91;5064166;28;20027;-74
2022/10/11 10:46:57;;;;;;;20.20;12.20;;;;;;;20.34;49.09;94494.50;5064424;28;20041;-74
2022/10/11 10:49:44;;;;;;;22.02;11.60;;;;;;;20.52;49.03;94492.09;5064527;28;20261;-74
2022/10/11 10:52:28;;;;;;;30.98;12.63;;;;;;;20.72;48.14;94482.81;5063713;28;20025;-74
2022/10/11 10:55:23;;;;;;;21.42;11.82;;;;;;;20.93;47.36;94484.28;5063957;28;20047;-74
2022/10/11 10:58:14;;;;;;;25.40;11.43;;;;;;;21.07;47.32;94489.91;5063868;28;20276;-74
2022/10/11 11:00:48;;;;;;;18.45;12.45;;;;;;;21.12;46.28;94477.97;5063704;28;20020;-74
2022/10/11 11:03:38;;;;;;;25.23;12.30;;;;;;;21.19;46.61;94476.16;5063731;28;20307;-76
2022/10/11 11:06:12;;;;;;;22.02;11.75;;;;;;;21.19;46.32;94472.69;5063536;28;20062;-73
2022/10/11 11:08:53;;;;;;;25.95;12.68;;;;;;;21.20;46.12;94471.50;5063664;28;20025;-73
2022/10/11 11:11:26;;;;;;;22.90;12.27;;;;;;;21.07;46.49;94465.53;5063451;28;20067;-73
2022/10/11 11:14:02;;;;;;;25.75;12.43;;;;;;;21.03;46.52;94476.31;5063576;28;20025;-73
2022/10/11 11:16:40;;;;;;;21.80;12.63;;;;;;;21.07;46.70;94472.88;5063478;28;20036;-73
2022/10/11 11:19:41;;;;;;;23.85;12.98;;;;;;;21.12;46.42;94469.84;5063499;28;20035;-72
2022/10/11 11:22:15;;;;;;;21.05;12.80;;;;;;;21.02;46.60;94469.34;5054622;28;20063;-73
2022/10/11 11:24:56;;;;;;;25.55;12.70;;;;;;;21.10;46.72;94472.13;5063288;28;20037;-72
2022/10/11 11:27:40;;;;;;;23.83;13.20;;;;;;;21.13;46.07;94466.00;5063636;28;20029;-74
2022/10/11 11:30:20;;;;;;;24.30;13.82;;;;;;;21.01;46.38;94465.06;5063612;28;20021;-73
2022/10/11 11:33:20;;;;;;;20.65;12.65;;;;;;;21.06;46.79;94461.25;5062123;28;20028;-71